createdAt,value
2019-05-02T00:02:14.100Z,91.30
2019-05-02T00:04:41.110Z,87.90
2019-05-02T00:07:14.563Z,91.15
2019-05-02T00:09:47.509Z,87.30
2019-05-02T00:12:15.099Z,91.10
2019-05-02T00:14:41.761Z,93.03
2019-05-02T00:17:10.081Z,89.07
2019-05-02T00:19:37.259Z,82.02
2019-05-02T00:22:12.210Z,85.50
2019-05-02T00:24:41.103Z,86.60
2019-05-02T00:27:08.880Z,82.72
2019-05-02T00:29:38.467Z,85.97
2019-05-02T00:32:05.653Z,84.37
2019-05-02T00:34:36.650Z,84.72
2019-05-02T00:37:01.998Z,84.72
2019-05-02T00:39:29.208Z,82.05
2019-05-02T00:41:56.364Z,84.37
2019-05-02T00:44:23.453Z,86.53
2019-05-02T00:46:50.553Z,84.32
2019-05-02T00:49:18.322Z,85.80
2019-05-02T00:51:46.412Z,81.50
2019-05-02T00:54:13.279Z,82.00
2019-05-02T00:56:44.098Z,83.82
2019-05-02T00:59:10.033Z,87.12
2019-05-02T01:01:44.998Z,87.05
2019-05-02T01:04:16.937Z,87.25
2019-05-02T01:06:49.317Z,89.95
2019-05-02T01:09:16.246Z,90.45
2019-05-02T01:11:43.050Z,86.53
2019-05-02T01:14:11.930Z,82.88
2019-05-02T01:16:39.772Z,81.37
2019-05-02T01:19:06.354Z,88.35
2019-05-02T01:21:34.077Z,85.07
2019-05-02T01:24:03.070Z,83.03
2019-05-02T01:26:35.401Z,87.95
2019-05-02T01:29:05.311Z,87.95
2019-05-02T01:31:49.992Z,89.17
2019-05-02T01:34:26.821Z,88.90
2019-05-02T01:37:02.287Z,87.37
2019-05-02T01:39:29.303Z,86.72
2019-05-02T01:41:59.988Z,83.78
2019-05-02T01:44:25.076Z,82.60
2019-05-02T01:46:54.102Z,84.87
2019-05-02T01:49:21.889Z,83.52
2019-05-02T01:51:49.590Z,86.05
2019-05-02T01:54:16.510Z,84.25
2019-05-02T01:56:43.446Z,84.40
2019-05-02T01:59:12.032Z,85.97
2019-05-02T02:01:42.392Z,84.10
2019-05-02T02:04:09.223Z,84.20
2019-05-02T02:06:38.901Z,84.62
2019-05-02T02:09:08.426Z,79.77
2019-05-02T02:11:35.831Z,79.27
2019-05-02T02:14:07.263Z,85.92
2019-05-02T02:16:35.303Z,79.50
2019-05-02T02:19:11.040Z,81.72
2019-05-02T02:21:48.614Z,76.97
2019-05-02T02:24:21.229Z,79.07
2019-05-02T02:26:49.955Z,79.47
2019-05-02T02:29:16.690Z,85.07
2019-05-02T02:31:48.257Z,85.12
2019-05-02T02:34:12.002Z,85.45
2019-05-02T02:36:39.120Z,86.50
2019-05-02T02:39:06.859Z,85.95
2019-05-02T02:41:35.181Z,85.38
2019-05-02T02:44:07.250Z,78.00
2019-05-02T02:46:40.095Z,82.45
2019-05-02T02:49:06.949Z,75.85
2019-05-02T02:51:33.639Z,79.00
2019-05-02T02:54:04.061Z,79.87
2019-05-02T02:56:34.386Z,79.22
2019-05-02T02:59:01.160Z,77.70
2019-05-02T03:01:29.300Z,75.35
2019-05-02T03:04:01.797Z,75.45
2019-05-02T03:06:24.874Z,72.22
2019-05-02T03:08:51.666Z,73.70
2019-05-02T03:11:23.519Z,69.75
2019-05-02T03:14:09.107Z,69.77
2019-05-02T03:16:45.606Z,70.47
2019-05-02T03:19:04.487Z,71.30
2019-05-02T03:21:30.994Z,70.57
2019-05-02T03:24:03.373Z,70.03
2019-05-02T03:26:26.857Z,69.67
2019-05-02T03:28:58.671Z,66.12
2019-05-02T03:31:25.036Z,73.17
2019-05-02T03:33:55.731Z,71.20
2019-05-02T03:36:34.958Z,68.97
2019-05-02T03:38:49.873Z,75.85
2019-05-02T03:41:20.969Z,75.65
2019-05-02T03:43:46.010Z,74.10
2019-05-02T03:46:13.546Z,70.72
2019-05-02T03:48:42.390Z,83.00
2019-05-02T03:51:19.967Z,70.92
2019-05-02T03:53:38.033Z,68.35
2019-05-02T03:56:10.445Z,69.03
2019-05-02T03:58:33.501Z,72.10
2019-05-02T04:01:01.749Z,68.07
2019-05-02T04:03:34.317Z,63.85
2019-05-02T04:05:58.095Z,69.32
2019-05-02T04:08:24.669Z,70.37
2019-05-02T04:10:59.365Z,72.53
2019-05-02T04:13:30.158Z,73.75
2019-05-02T04:15:56.079Z,67.22
2019-05-02T04:18:23.980Z,72.05
2019-05-02T04:20:51.977Z,72.12
2019-05-02T04:23:21.079Z,75.10
2019-05-02T04:25:48.049Z,71.02
2019-05-02T04:28:15.577Z,71.65
2019-05-02T04:30:45.132Z,71.05
2019-05-02T04:33:10.720Z,71.75
2019-05-02T04:35:40.194Z,69.55
2019-05-02T04:38:15.777Z,72.47
2019-05-02T04:40:41.710Z,69.30
2019-05-02T04:43:10.243Z,69.20
2019-05-02T04:45:50.951Z,74.75
2019-05-02T04:48:04.061Z,74.00
2019-05-02T04:50:29.624Z,75.47
2019-05-02T04:52:59.109Z,75.67
2019-05-02T04:55:30.162Z,75.92
2019-05-02T04:57:53.000Z,75.10
2019-05-02T05:00:28.690Z,79.92
2019-05-02T05:02:58.020Z,79.90
2019-05-02T05:05:25.925Z,77.32
2019-05-02T05:07:53.265Z,80.12
2019-05-02T05:10:19.727Z,80.12
2019-05-02T05:12:48.027Z,79.27
2019-05-02T05:15:33.790Z,79.62
2019-05-02T05:17:43.230Z,77.25
2019-05-02T05:20:15.697Z,85.87
2019-05-02T05:22:44.348Z,83.85
2019-05-02T05:25:21.427Z,84.20
2019-05-02T05:27:52.570Z,85.70
2019-05-02T05:30:18.737Z,86.65
2019-05-02T05:32:47.780Z,91.05
2019-05-02T05:35:14.182Z,86.40
2019-05-02T05:37:43.216Z,89.32
2019-05-02T05:40:09.653Z,99.10
2019-05-02T05:42:37.904Z,107.63
2019-05-02T05:45:09.728Z,112.47
2019-05-02T05:47:35.024Z,115.90
2019-05-02T05:50:02.027Z,115.62
2019-05-02T05:52:33.157Z,121.00
2019-05-02T05:55:12.645Z,121.85
2019-05-02T05:57:38.472Z,116.90
2019-05-02T06:00:11.444Z,122.62
2019-05-02T06:02:50.884Z,124.07
2019-05-02T06:05:07.796Z,119.37
2019-05-02T06:07:41.158Z,129.68
2019-05-02T06:10:07.810Z,129.30
2019-05-02T06:12:35.508Z,129.70
2019-05-02T06:15:02.207Z,137.57
2019-05-02T06:17:31.055Z,134.20
2019-05-02T06:19:58.013Z,129.82
2019-05-02T06:22:25.706Z,125.87
2019-05-02T06:24:52.453Z,129.00
2019-05-02T06:27:20.928Z,134.35
2019-05-02T06:29:51.064Z,127.62
2019-05-02T06:32:19.326Z,126.12
2019-05-02T06:34:47.551Z,119.90
2019-05-02T06:37:22.143Z,118.97
2019-05-02T06:39:48.057Z,126.58
2019-05-02T06:42:16.061Z,118.57
2019-05-02T06:44:44.271Z,114.05
2019-05-02T06:47:11.352Z,113.75
2019-05-02T06:49:38.340Z,104.38
2019-05-02T06:52:05.585Z,112.60
2019-05-02T06:54:32.500Z,109.95
2019-05-02T06:57:02.891Z,107.20
2019-05-02T06:59:29.867Z,112.65
2019-05-02T07:01:59.612Z,99.97
2019-05-02T07:04:26.738Z,108.30
2019-05-02T07:06:58.614Z,109.03
2019-05-02T07:09:22.907Z,111.57
2019-05-02T07:11:57.113Z,120.87
2019-05-02T07:14:23.688Z,110.50
2019-05-02T07:16:54.629Z,111.77
2019-05-02T07:19:27.358Z,109.95
2019-05-02T07:21:53.129Z,109.17
2019-05-02T07:24:25.311Z,111.92
2019-05-02T07:26:52.114Z,103.65
2019-05-02T07:29:21.801Z,101.35
2019-05-02T07:31:48.937Z,105.07
2019-05-02T07:34:16.291Z,105.97
2019-05-02T07:36:43.223Z,99.45
2019-05-02T07:39:10.225Z,100.27
2019-05-02T07:41:44.849Z,104.60
2019-05-02T07:44:12.287Z,111.12
2019-05-02T07:46:51.125Z,109.05
2019-05-02T07:49:08.070Z,103.32
2019-05-02T07:51:35.139Z,114.67
2019-05-02T07:54:02.227Z,115.45
2019-05-02T07:56:29.268Z,111.65
2019-05-02T07:58:56.827Z,108.92
2019-05-02T08:01:23.786Z,110.78
2019-05-02T08:03:50.995Z,106.80
2019-05-02T08:06:18.920Z,103.90
2019-05-02T08:08:47.040Z,106.83
2019-05-02T08:11:15.393Z,105.78
2019-05-02T08:13:42.388Z,99.42
2019-05-02T08:16:09.278Z,101.15
2019-05-02T08:18:47.548Z,91.95
2019-05-02T08:21:14.696Z,99.75
2019-05-02T08:23:41.638Z,95.38
2019-05-02T08:26:08.586Z,88.20
2019-05-02T08:28:53.251Z,87.15
2019-05-02T08:31:21.021Z,83.75
2019-05-02T08:33:48.172Z,91.35
2019-05-02T08:36:15.198Z,92.42
2019-05-02T08:38:41.794Z,90.03
2019-05-02T08:41:09.988Z,88.62
2019-05-02T08:43:40.068Z,84.13
2019-05-02T08:46:09.415Z,83.35
2019-05-02T08:48:36.402Z,89.40
2019-05-02T08:51:06.711Z,100.22
2019-05-02T08:53:36.616Z,93.75
2019-05-02T08:56:03.814Z,101.40
2019-05-02T08:58:31.099Z,94.58
2019-05-02T09:00:58.093Z,99.28
2019-05-02T09:03:25.217Z,91.97
2019-05-02T09:06:04.628Z,104.27
2019-05-02T09:08:22.971Z,103.30
2019-05-02T09:10:49.794Z,101.50
2019-05-02T09:13:23.660Z,100.75
2019-05-02T09:15:51.061Z,98.10
2019-05-02T09:18:14.439Z,101.92
2019-05-02T09:20:42.348Z,108.05
2019-05-02T09:23:12.268Z,107.52
2019-05-02T09:28:33.240Z,104.05
2019-05-02T09:31:05.102Z,103.97
2019-05-02T09:33:32.225Z,107.78
2019-05-02T09:35:58.180Z,109.80
2019-05-02T09:38:25.051Z,116.12
2019-05-02T09:40:56.207Z,106.37
2019-05-02T09:43:22.857Z,108.57
2019-05-02T09:45:52.003Z,110.85
2019-05-02T09:48:22.709Z,104.32
2019-05-02T09:50:48.353Z,107.45
2019-05-02T09:53:20.503Z,111.77
2019-05-02T09:55:50.323Z,113.12
2019-05-02T09:58:21.078Z,116.93
2019-05-02T10:00:58.499Z,124.02
2019-05-02T10:03:28.456Z,128.07
2019-05-02T10:05:57.366Z,133.85
2019-05-02T10:08:25.074Z,133.40
2019-05-02T10:10:53.248Z,133.72
2019-05-02T10:13:22.952Z,137.88
2019-05-02T10:15:49.941Z,126.40
2019-05-02T10:18:19.628Z,123.45
2019-05-02T10:23:19.554Z,135.68
2019-05-02T10:25:46.917Z,143.40
2019-05-02T10:28:14.507Z,128.93
2019-05-02T10:30:42.761Z,124.47
2019-05-02T10:33:12.148Z,113.72
2019-05-02T10:35:43.896Z,112.22
2019-05-02T10:38:17.990Z,118.05
2019-05-02T10:40:48.417Z,108.95
2019-05-02T10:43:18.389Z,118.85
2019-05-02T10:45:51.761Z,116.67
2019-05-02T10:48:25.852Z,126.27
2019-05-02T10:50:55.514Z,122.70
2019-05-02T10:53:22.796Z,127.62
2019-05-02T10:56:05.112Z,131.00
2019-05-02T10:58:35.717Z,138.45
2019-05-02T11:01:02.271Z,144.53
2019-05-02T11:03:38.124Z,147.78
2019-05-02T11:06:07.308Z,152.12
2019-05-02T11:08:32.101Z,147.37
2019-05-02T11:10:59.532Z,127.80
2019-05-02T11:13:28.232Z,137.52
2019-05-02T11:16:12.384Z,140.40
2019-05-02T11:18:58.131Z,126.78
2019-05-02T11:21:24.944Z,120.45
2019-05-02T11:24:02.628Z,125.50
2019-05-02T11:26:25.206Z,116.70
2019-05-02T11:28:52.297Z,112.80
2019-05-02T11:31:21.696Z,109.50
2019-05-02T11:33:48.604Z,108.40
2019-05-02T11:36:15.279Z,115.55
2019-05-02T11:38:45.670Z,118.13
2019-05-02T11:41:16.547Z,125.90
2019-05-02T11:43:44.962Z,112.05
2019-05-02T11:46:13.945Z,105.90
2019-05-02T11:48:54.704Z,101.67
2019-05-02T11:51:14.900Z,82.27
2019-05-02T11:53:38.860Z,92.20
2019-05-02T11:56:07.579Z,83.27
2019-05-02T11:58:35.422Z,92.95
2019-05-02T12:01:05.339Z,78.15
2019-05-02T12:03:43.358Z,83.45
2019-05-02T12:06:14.061Z,89.70
2019-05-02T12:08:39.527Z,68.85
2019-05-02T12:11:08.462Z,59.60
2019-05-02T12:13:36.633Z,62.67
2019-05-02T12:16:08.438Z,65.47
2019-05-02T12:21:02.634Z,57.60
2019-05-02T12:23:32.826Z,64.50
2019-05-02T12:26:00.094Z,65.12
2019-05-02T12:28:27.240Z,67.05
2019-05-02T12:30:54.617Z,52.35
2019-05-02T12:33:23.389Z,45.00
2019-05-02T12:35:52.608Z,42.62
2019-05-02T12:38:19.739Z,36.85
2019-05-02T12:40:46.520Z,39.38
2019-05-02T12:43:13.131Z,37.73
2019-05-02T12:45:42.039Z,36.48
2019-05-02T12:48:08.983Z,35.17
2019-05-02T12:50:41.774Z,32.40
2019-05-02T12:53:08.676Z,35.17
2019-05-02T12:55:35.863Z,26.00
2019-05-02T12:58:04.741Z,25.52
2019-05-02T13:00:32.027Z,26.70
2019-05-02T13:03:01.991Z,28.07
2019-05-02T13:05:37.205Z,27.13
2019-05-02T13:08:04.170Z,28.07
2019-05-02T13:10:54.016Z,29.80
2019-05-02T13:13:21.750Z,39.13
2019-05-02T13:15:51.921Z,35.55
2019-05-02T13:18:23.330Z,41.55
2019-05-02T13:20:48.298Z,30.15
2019-05-02T13:23:27.426Z,39.55
2019-05-02T13:25:54.032Z,30.88
2019-05-02T13:28:22.251Z,29.82
2019-05-02T13:30:57.466Z,32.60
2019-05-02T13:33:35.952Z,36.98
2019-05-02T13:36:02.811Z,37.48
2019-05-02T13:38:29.856Z,34.03
2019-05-02T13:40:57.398Z,40.67
2019-05-02T13:43:26.085Z,40.95
2019-05-02T13:46:09.962Z,40.17
2019-05-02T13:48:36.981Z,44.55
2019-05-02T13:51:05.685Z,39.60
2019-05-02T13:53:34.267Z,40.40
2019-05-02T13:56:12.986Z,48.08
2019-05-02T13:58:40.219Z,53.17
2019-05-02T14:01:07.383Z,53.95
2019-05-02T14:03:34.347Z,57.88
2019-05-02T14:06:02.967Z,49.80
2019-05-02T14:08:36.873Z,59.48
2019-05-02T14:11:08.180Z,56.33
2019-05-02T14:13:39.928Z,58.92
2019-05-02T14:16:24.820Z,56.73
2019-05-02T14:18:52.955Z,59.63
2019-05-02T14:21:20.003Z,62.10
2019-05-02T14:23:46.983Z,56.63
2019-05-02T14:26:26.922Z,60.40
2019-05-02T14:28:43.808Z,59.95
2019-05-02T14:31:11.865Z,67.20
2019-05-02T14:33:42.306Z,69.40
2019-05-02T14:36:09.382Z,76.85
2019-05-02T14:38:36.466Z,73.62
2019-05-02T14:41:08.213Z,78.80
2019-05-02T14:43:46.230Z,78.83
2019-05-02T14:46:09.326Z,81.95
2019-05-02T14:48:43.707Z,81.17
2019-05-02T14:51:07.924Z,75.62
2019-05-02T14:53:36.773Z,73.28
2019-05-02T14:56:16.711Z,76.33
2019-05-02T14:58:43.397Z,74.50
2019-05-02T15:01:12.642Z,74.35
2019-05-02T15:03:39.538Z,76.95
2019-05-02T15:06:07.132Z,69.40
2019-05-02T15:08:36.920Z,65.62
2019-05-02T15:11:03.421Z,65.50
2019-05-02T15:13:32.297Z,66.57
2019-05-02T15:15:59.005Z,62.20
2019-05-02T15:18:26.160Z,65.32
2019-05-02T15:20:52.968Z,64.32
2019-05-02T15:23:20.055Z,66.25
2019-05-02T15:25:53.903Z,69.97
2019-05-02T15:28:19.747Z,70.12
2019-05-02T15:30:49.515Z,70.35
2019-05-02T15:33:17.041Z,68.50
2019-05-02T15:35:47.344Z,65.00
2019-05-02T15:38:20.837Z,66.85
2019-05-02T15:40:49.815Z,59.40
2019-05-02T15:43:12.612Z,61.23
2019-05-02T15:45:43.470Z,60.92
2019-05-02T15:48:08.818Z,59.75
2019-05-02T15:50:35.450Z,64.22
2019-05-02T15:53:12.338Z,53.20
2019-05-02T15:55:39.639Z,57.88
2019-05-02T15:58:16.911Z,50.80
2019-05-02T16:00:52.050Z,52.23
2019-05-02T16:03:19.932Z,51.63
2019-05-02T16:05:47.272Z,43.30
2019-05-02T16:08:13.796Z,50.45
2019-05-02T16:10:42.836Z,46.50
2019-05-02T16:13:13.425Z,44.27
2019-05-02T16:15:39.822Z,43.23
2019-05-02T16:18:07.861Z,42.20
2019-05-02T16:20:49.228Z,39.15
2019-05-02T16:23:18.962Z,43.73
2019-05-02T16:25:45.240Z,39.00
2019-05-02T16:28:12.694Z,37.98
2019-05-02T16:30:47.358Z,38.95
2019-05-02T16:33:18.875Z,36.28
2019-05-02T16:35:38.734Z,37.33
2019-05-02T16:38:06.168Z,37.17
2019-05-02T16:40:34.846Z,36.30
2019-05-02T16:43:02.903Z,31.57
2019-05-02T16:45:29.790Z,32.25
2019-05-02T16:48:00.604Z,28.25
2019-05-02T16:50:27.592Z,30.08
2019-05-02T16:52:53.781Z,26.87
2019-05-02T16:55:26.307Z,26.27
2019-05-02T16:57:51.766Z,24.37
2019-05-02T17:00:22.641Z,23.07
2019-05-02T17:02:49.609Z,22.50
2019-05-02T17:05:16.843Z,22.05
2019-05-02T17:07:52.922Z,19.52
2019-05-02T17:10:22.003Z,17.48
2019-05-02T17:12:52.925Z,15.90
2019-05-02T17:15:36.209Z,20.65
2019-05-02T17:18:12.411Z,18.48
2019-05-02T17:20:33.453Z,19.00
2019-05-02T17:23:03.375Z,21.07
2019-05-02T17:25:28.977Z,24.82
2019-05-02T17:28:01.678Z,27.77
2019-05-02T17:30:25.219Z,25.72
2019-05-02T17:32:51.766Z,26.23
2019-05-02T17:35:18.716Z,28.95
2019-05-02T17:37:48.765Z,26.87
2019-05-02T17:40:21.387Z,25.48
2019-05-02T17:42:44.703Z,23.12
2019-05-02T17:45:11.721Z,25.45
2019-05-02T17:47:39.881Z,23.38
2019-05-02T17:50:16.322Z,24.23
2019-05-02T17:52:40.087Z,19.55
2019-05-02T17:55:09.301Z,24.07
2019-05-02T17:57:36.299Z,18.87
2019-05-02T18:00:13.121Z,20.08
2019-05-02T18:02:38.668Z,13.75
2019-05-02T18:05:06.258Z,13.65
2019-05-02T18:07:36.054Z,13.55
2019-05-02T18:10:07.854Z,11.68
2019-05-02T18:12:36.911Z,12.18
2019-05-02T18:15:05.344Z,10.47
2019-05-02T18:17:34.206Z,9.38
2019-05-02T18:20:04.801Z,9.05
2019-05-02T18:22:32.868Z,10.43
2019-05-02T18:24:58.786Z,11.45
2019-05-02T18:27:25.623Z,9.88
2019-05-02T18:29:52.333Z,9.70
2019-05-02T18:32:22.761Z,10.82
2019-05-02T18:34:56.956Z,11.88
2019-05-02T18:37:22.005Z,13.03
2019-05-02T18:39:53.246Z,10.13
2019-05-02T18:42:21.961Z,11.43
2019-05-02T18:44:48.337Z,15.13
2019-05-02T18:47:20.293Z,12.57
2019-05-02T18:49:44.931Z,11.30
2019-05-02T18:52:11.890Z,11.90
2019-05-02T18:54:43.110Z,13.25
2019-05-02T18:57:07.657Z,13.28
2019-05-02T18:59:34.415Z,14.10
2019-05-02T19:02:02.191Z,11.48
2019-05-02T19:04:35.260Z,10.78
2019-05-02T19:06:57.775Z,15.43
2019-05-02T19:09:29.817Z,12.90
2019-05-02T19:12:04.498Z,11.05
2019-05-02T19:14:25.101Z,12.98
2019-05-02T19:16:52.035Z,12.53
2019-05-02T19:19:18.793Z,12.70
2019-05-02T19:21:45.545Z,14.90
2019-05-02T19:24:13.219Z,10.63
2019-05-02T19:26:41.577Z,13.00
2019-05-02T19:29:15.697Z,14.13
2019-05-02T19:31:44.968Z,17.23
2019-05-02T19:34:11.980Z,20.80
2019-05-02T19:36:41.624Z,19.17
2019-05-02T19:39:09.917Z,15.20
2019-05-02T19:41:44.053Z,15.45
2019-05-02T19:46:38.750Z,13.10
2019-05-02T19:49:06.812Z,15.13
2019-05-02T19:51:38.696Z,12.95
2019-05-02T19:54:07.120Z,9.38
2019-05-02T19:56:45.847Z,13.88
2019-05-02T19:59:02.770Z,13.20
2019-05-02T20:01:29.494Z,11.53
2019-05-02T20:03:56.852Z,10.70
2019-05-02T20:06:25.122Z,12.18
2019-05-02T20:08:58.948Z,14.73
2019-05-02T20:11:21.931Z,13.53
2019-05-02T20:13:48.735Z,11.95
2019-05-02T20:16:22.465Z,14.47
2019-05-02T20:18:49.385Z,11.40
2019-05-02T20:21:24.182Z,10.32
2019-05-02T20:23:46.669Z,14.27
2019-05-02T20:26:15.194Z,10.90
2019-05-02T20:28:42.332Z,17.70
2019-05-02T20:31:12.294Z,12.88
2019-05-02T20:33:52.051Z,11.68
2019-05-02T20:36:18.919Z,15.18
2019-05-02T20:38:45.539Z,8.33
2019-05-02T20:41:12.813Z,14.63
2019-05-02T20:43:42.823Z,11.65
2019-05-02T20:46:09.358Z,11.40
2019-05-02T20:48:36.569Z,14.47
2019-05-02T20:51:03.864Z,14.13
2019-05-02T20:53:34.153Z,16.05
2019-05-02T20:56:01.810Z,17.00
2019-05-02T20:58:28.766Z,14.33
2019-05-02T21:01:05.434Z,12.30
2019-05-02T21:03:24.883Z,15.63
2019-05-02T21:05:56.274Z,11.18
2019-05-02T21:11:08.935Z,11.50
2019-05-02T21:13:35.912Z,12.70
2019-05-02T21:16:03.341Z,12.43
2019-05-02T21:18:29.955Z,12.88
2019-05-02T21:20:56.696Z,9.83
2019-05-02T21:23:26.362Z,12.20
2019-05-02T21:25:53.077Z,10.80
2019-05-02T21:28:22.528Z,11.20
2019-05-02T21:30:49.131Z,11.10
2019-05-02T21:33:34.987Z,9.15
2019-05-02T21:36:02.322Z,8.40
2019-05-02T21:38:29.492Z,9.10
2019-05-02T21:40:56.707Z,8.88
2019-05-02T21:43:24.016Z,8.13
2019-05-02T21:45:51.661Z,6.72
2019-05-02T21:48:21.964Z,7.25
2019-05-02T21:50:52.230Z,4.05
2019-05-02T21:53:36.022Z,3.92
2019-05-02T21:56:04.786Z,6.58
2019-05-02T21:58:32.339Z,5.35
2019-05-02T22:01:08.966Z,3.15
2019-05-02T22:03:36.346Z,4.92
2019-05-02T22:06:03.992Z,5.70
2019-05-02T22:08:32.292Z,4.12
2019-05-02T22:10:59.567Z,5.62
2019-05-02T22:13:26.251Z,5.00
2019-05-02T22:15:52.984Z,5.33
2019-05-02T22:18:21.661Z,4.15
2019-05-02T22:20:48.825Z,4.80
2019-05-02T22:23:16.332Z,3.30
2019-05-02T22:25:43.242Z,4.65
2019-05-02T22:28:10.140Z,3.58
2019-05-02T22:30:37.047Z,5.87
2019-05-02T22:33:03.917Z,5.53
2019-05-02T22:35:30.914Z,6.53
2019-05-02T22:38:12.096Z,4.15
2019-05-02T22:40:39.140Z,4.12
2019-05-02T22:43:08.102Z,7.42
2019-05-02T22:45:34.945Z,4.95
2019-05-02T22:48:03.365Z,6.05
2019-05-02T22:50:30.889Z,6.35
2019-05-02T22:52:58.851Z,7.17
2019-05-02T22:55:25.459Z,6.28
2019-05-02T22:57:52.248Z,8.30
2019-05-02T23:00:19.270Z,8.18
2019-05-02T23:02:46.249Z,6.90
2019-05-02T23:05:13.786Z,6.62
2019-05-02T23:07:41.920Z,9.80
2019-05-02T23:10:12.644Z,8.38
2019-05-02T23:12:42.358Z,7.53
2019-05-02T23:15:09.472Z,11.08
2019-05-02T23:17:36.060Z,9.08
2019-05-02T23:20:05.549Z,9.35
2019-05-02T23:22:32.396Z,9.58
2019-05-02T23:25:02.907Z,8.18
2019-05-02T23:27:42.411Z,10.00
2019-05-02T23:30:14.641Z,14.45
2019-05-02T23:32:42.363Z,9.70
2019-05-02T23:35:12.219Z,9.30
2019-05-02T23:37:39.205Z,10.80
2019-05-02T23:40:07.021Z,12.90
2019-05-02T23:42:34.122Z,9.68
2019-05-02T23:45:02.818Z,9.03
2019-05-02T23:47:29.964Z,15.70
2019-05-02T23:49:58.365Z,15.08
2019-05-02T23:52:25.231Z,14.47
2019-05-02T23:54:52.585Z,14.63
2019-05-02T23:57:19.718Z,11.90
2019-05-02T23:59:46.862Z,12.80
